sensor_id;sensor_type;location;lat;lon;timestamp;pressure;altitude;pressure_sealevel;temperature;humidity
53908;BME280;40469;47.998;7.794;2023-06-26T00:01:06;98899.13;;;21.66;100.00
53908;BME280;40469;47.998;7.794;2023-06-26T00:03:31;98894.81;;;21.63;100.00
53908;BME280;40469;47.998;7.794;2023-06-26T00:05:57;98903.00;;;21.60;100.00
53908;BME280;40469;47.998;7.794;2023-06-26T00:08:25;98903.94;;;21.59;100.00
53908;BME280;40469;47.998;7.794;2023-06-26T00:10:50;98907.78;;;21.53;100.00
53908;BME280;40469;47.998;7.794;2023-06-26T00:13:16;98910.59;;;21.50;100.00
53908;BME280;40469;47.998;7.794;2023-06-26T00:15:41;98905.53;;;21.46;100.00
53908;BME280;40469;47.998;7.794;2023-06-26T00:18:07;98918.09;;;21.42;100.00
53908;BME280;40469;47.998;7.794;2023-06-26T00:20:32;98912.03;;;21.40;100.00
53908;BME280;40469;47.998;7.794;2023-06-26T00:22:59;98913.06;;;21.37;100.00
53908;BME280;40469;47.998;7.794;2023-06-26T00:25:24;98908.84;;;21.33;100.00
53908;BME280;40469;47.998;7.794;2023-06-26T00:27:49;98908.41;;;21.25;100.00
53908;BME280;40469;47.998;7.794;2023-06-26T00:30:14;98909.69;;;21.18;100.00
53908;BME280;40469;47.998;7.794;2023-06-26T00:32:39;98904.38;;;21.18;100.00
53908;BME280;40469;47.998;7.794;2023-06-26T00:35:05;98907.19;;;21.15;100.00
53908;BME280;40469;47.998;7.794;2023-06-26T00:37:30;98912.50;;;21.15;100.00
53908;BME280;40469;47.998;7.794;2023-06-26T00:39:55;98916.97;;;21.14;100.00
53908;BME280;40469;47.998;7.794;2023-06-26T00:42:21;98914.47;;;21.11;100.00
53908;BME280;40469;47.998;7.794;2023-06-26T00:44:46;98920.78;;;21.09;100.00
53908;BME280;40469;47.998;7.794;2023-06-26T00:47:12;98921.91;;;21.05;100.00
53908;BME280;40469;47.998;7.794;2023-06-26T00:49:39;98922.94;;;21.02;100.00
53908;BME280;40469;47.998;7.794;2023-06-26T00:52:04;98931.91;;;20.99;100.00
53908;BME280;40469;47.998;7.794;2023-06-26T00:54:29;98925.28;;;20.91;100.00
53908;BME280;40469;47.998;7.794;2023-06-26T00:56:55;98924.38;;;20.74;100.00
53908;BME280;40469;47.998;7.794;2023-06-26T00:59:20;98916.56;;;20.71;100.00
53908;BME280;40469;47.998;7.794;2023-06-26T01:01:45;98922.91;;;20.69;100.00
53908;BME280;40469;47.998;7.794;2023-06-26T01:04:11;98913.50;;;20.63;100.00
53908;BME280;40469;47.998;7.794;2023-06-26T01:06:42;98924.22;;;20.60;100.00
53908;BME280;40469;47.998;7.794;2023-06-26T01:09:08;98919.72;;;20.62;100.00
53908;BME280;40469;47.998;7.794;2023-06-26T01:11:34;98920.59;;;20.61;100.00
53908;BME280;40469;47.998;7.794;2023-06-26T01:13:59;98913.81;;;20.55;100.00
53908;BME280;40469;47.998;7.794;2023-06-26T01:16:25;98920.25;;;20.51;100.00
53908;BME280;40469;47.998;7.794;2023-06-26T01:18:52;98915.09;;;20.48;100.00
53908;BME280;40469;47.998;7.794;2023-06-26T01:21:18;98906.34;;;20.46;100.00
53908;BME280;40469;47.998;7.794;2023-06-26T01:24:05;98904.63;;;20.45;100.00
53908;BME280;40469;47.998;7.794;2023-06-26T01:26:34;98901.19;;;20.43;100.00
53908;BME280;40469;47.998;7.794;2023-06-26T01:29:00;98902.03;;;20.43;100.00
53908;BME280;40469;47.998;7.794;2023-06-26T01:31:27;98900.34;;;20.42;100.00
53908;BME280;40469;47.998;7.794;2023-06-26T01:33:53;98902.16;;;20.42;100.00
53908;BME280;40469;47.998;7.794;2023-06-26T01:36:19;98900.34;;;20.42;100.00
53908;BME280;40469;47.998;7.794;2023-06-26T01:38:44;98890.75;;;20.40;100.00
53908;BME280;40469;47.998;7.794;2023-06-26T01:41:10;98898.81;;;20.38;100.00
53908;BME280;40469;47.998;7.794;2023-06-26T01:44:23;98893.50;;;20.38;100.00
53908;BME280;40469;47.998;7.794;2023-06-26T01:46:25;98889.19;;;20.36;100.00
53908;BME280;40469;47.998;7.794;2023-06-26T01:51:23;98886.06;;;20.27;100.00
53908;BME280;40469;47.998;7.794;2023-06-26T01:53:52;98887.88;;;20.27;100.00
53908;BME280;40469;47.998;7.794;2023-06-26T01:56:18;98888.81;;;20.26;100.00
53908;BME280;40469;47.998;7.794;2023-06-26T01:58:45;98891.47;;;20.26;100.00
53908;BME280;40469;47.998;7.794;2023-06-26T02:01:11;98886.00;;;20.29;100.00
53908;BME280;40469;47.998;7.794;2023-06-26T02:03:37;98890.59;;;20.25;100.00
53908;BME280;40469;47.998;7.794;2023-06-26T02:06:02;98898.41;;;20.29;100.00
53908;BME280;40469;47.998;7.794;2023-06-26T02:08:27;98897.56;;;20.28;100.00
53908;BME280;40469;47.998;7.794;2023-06-26T02:10:52;98888.91;;;20.24;100.00
53908;BME280;40469;47.998;7.794;2023-06-26T02:13:18;98889.88;;;20.22;100.00
53908;BME280;40469;47.998;7.794;2023-06-26T02:15:43;98887.31;;;20.20;100.00
53908;BME280;40469;47.998;7.794;2023-06-26T02:18:08;98889.13;;;20.20;100.00
53908;BME280;40469;47.998;7.794;2023-06-26T02:20:33;98896.28;;;20.18;100.00
53908;BME280;40469;47.998;7.794;2023-06-26T02:22:59;98900.81;;;20.16;100.00
53908;BME280;40469;47.998;7.794;2023-06-26T02:25:24;98895.50;;;20.16;100.00
53908;BME280;40469;47.998;7.794;2023-06-26T02:27:49;98892.94;;;20.14;100.00
53908;BME280;40469;47.998;7.794;2023-06-26T02:30:14;98899.16;;;20.13;100.00
53908;BME280;40469;47.998;7.794;2023-06-26T02:32:39;98898.31;;;20.13;100.00
53908;BME280;40469;47.998;7.794;2023-06-26T02:35:05;98901.81;;;20.13;100.00
53908;BME280;40469;47.998;7.794;2023-06-26T02:37:30;98892.16;;;20.12;100.00
53908;BME280;40469;47.998;7.794;2023-06-26T02:39:55;98897.28;;;20.15;100.00
53908;BME280;40469;47.998;7.794;2023-06-26T02:42:21;98892.88;;;20.16;100.00
53908;BME280;40469;47.998;7.794;2023-06-26T02:44:46;98898.16;;;20.16;100.00
53908;BME280;40469;47.998;7.794;2023-06-26T02:47:11;98889.19;;;20.18;100.00
53908;BME280;40469;47.998;7.794;2023-06-26T02:49:36;98889.97;;;20.20;100.00
53908;BME280;40469;47.998;7.794;2023-06-26T02:52:01;98892.53;;;20.22;100.00
53908;BME280;40469;47.998;7.794;2023-06-26T02:54:27;98891.69;;;20.21;100.00
53908;BME280;40469;47.998;7.794;2023-06-26T02:56:52;98897.00;;;20.21;100.00
53908;BME280;40469;47.998;7.794;2023-06-26T02:59:17;98894.28;;;20.23;100.00
53908;BME280;40469;47.998;7.794;2023-06-26T03:01:42;98892.41;;;20.25;100.00
53908;BME280;40469;47.998;7.794;2023-06-26T03:04:08;98900.28;;;20.26;100.00
53908;BME280;40469;47.998;7.794;2023-06-26T03:06:34;98903.84;;;20.25;100.00
53908;BME280;40469;47.998;7.794;2023-06-26T03:08:59;98897.84;;;20.22;100.00
53908;BME280;40469;47.998;7.794;2023-06-26T03:11:24;98899.50;;;20.24;100.00
53908;BME280;40469;47.998;7.794;2023-06-26T03:13:49;98904.16;;;20.19;100.00
53908;BME280;40469;47.998;7.794;2023-06-26T03:16:14;98908.59;;;20.19;100.00
53908;BME280;40469;47.998;7.794;2023-06-26T03:18:40;98902.44;;;20.18;100.00
53908;BME280;40469;47.998;7.794;2023-06-26T03:21:05;98901.66;;;20.16;100.00
53908;BME280;40469;47.998;7.794;2023-06-26T03:23:30;98905.34;;;20.14;100.00
53908;BME280;40469;47.998;7.794;2023-06-26T03:25:55;98912.50;;;20.12;100.00
53908;BME280;40469;47.998;7.794;2023-06-26T03:28:21;98905.41;;;20.12;100.00
53908;BME280;40469;47.998;7.794;2023-06-26T03:30:46;98905.56;;;20.09;100.00
53908;BME280;40469;47.998;7.794;2023-06-26T03:33:11;98918.97;;;20.06;100.00
53908;BME280;40469;47.998;7.794;2023-06-26T03:35:36;98913.78;;;20.03;100.00
53908;BME280;40469;47.998;7.794;2023-06-26T03:38:03;98924.56;;;20.00;100.00
53908;BME280;40469;47.998;7.794;2023-06-26T03:40:28;98925.63;;;19.96;100.00
53908;BME280;40469;47.998;7.794;2023-06-26T03:42:53;98925.19;;;19.87;100.00
53908;BME280;40469;47.998;7.794;2023-06-26T03:45:18;98920.88;;;19.85;100.00
53908;BME280;40469;47.998;7.794;2023-06-26T03:47:44;98928.03;;;19.83;100.00
53908;BME280;40469;47.998;7.794;2023-06-26T03:50:12;98927.13;;;19.84;100.00
53908;BME280;40469;47.998;7.794;2023-06-26T03:52:37;98930.47;;;19.87;100.00
53908;BME280;40469;47.998;7.794;2023-06-26T03:55:02;98922.44;;;19.89;100.00
53908;BME280;40469;47.998;7.794;2023-06-26T03:57:28;98938.19;;;19.92;100.00
53908;BME280;40469;47.998;7.794;2023-06-26T03:59:53;98928.59;;;19.89;100.00
53908;BME280;40469;47.998;7.794;2023-06-26T04:02:18;98939.00;;;19.94;100.00
53908;BME280;40469;47.998;7.794;2023-06-26T04:04:43;98934.41;;;19.98;100.00
53908;BME280;40469;47.998;7.794;2023-06-26T04:07:09;98939.59;;;19.99;100.00
53908;BME280;40469;47.998;7.794;2023-06-26T04:09:35;98942.34;;;19.98;100.00
53908;BME280;40469;47.998;7.794;2023-06-26T04:12:00;98945.06;;;19.96;100.00
53908;BME280;40469;47.998;7.794;2023-06-26T04:14:25;98945.84;;;19.98;100.00
53908;BME280;40469;47.998;7.794;2023-06-26T04:16:50;98940.69;;;19.95;100.00
53908;BME280;40469;47.998;7.794;2023-06-26T04:19:16;98946.56;;;20.02;100.00
53908;BME280;40469;47.998;7.794;2023-06-26T04:21:41;98937.03;;;19.98;100.00
53908;BME280;40469;47.998;7.794;2023-06-26T04:24:06;98934.47;;;19.96;100.00
53908;BME280;40469;47.998;7.794;2023-06-26T04:26:31;98937.19;;;19.95;100.00
53908;BME280;40469;47.998;7.794;2023-06-26T04:28:57;98940.47;;;20.00;100.00
53908;BME280;40469;47.998;7.794;2023-06-26T04:31:22;98939.53;;;20.01;100.00
53908;BME280;40469;47.998;7.794;2023-06-26T04:33:47;98939.31;;;20.05;100.00
53908;BME280;40469;47.998;7.794;2023-06-26T04:36:16;98935.81;;;20.05;100.00
53908;BME280;40469;47.998;7.794;2023-06-26T04:38:41;98939.16;;;20.08;100.00
53908;BME280;40469;47.998;7.794;2023-06-26T04:41:06;98938.06;;;20.13;100.00
53908;BME280;40469;47.998;7.794;2023-06-26T04:43:32;98945.09;;;20.14;100.00
53908;BME280;40469;47.998;7.794;2023-06-26T04:45:57;98942.97;;;20.20;100.00
53908;BME280;40469;47.998;7.794;2023-06-26T04:48:22;98941.22;;;20.21;100.00
53908;BME280;40469;47.998;7.794;2023-06-26T04:50:47;98942.69;;;20.26;100.00
53908;BME280;40469;47.998;7.794;2023-06-26T04:53:18;98945.19;;;20.30;100.00
53908;BME280;40469;47.998;7.794;2023-06-26T04:55:44;98941.66;;;20.29;100.00
53908;BME280;40469;47.998;7.794;2023-06-26T04:58:09;98948.47;;;20.35;100.00
53908;BME280;40469;47.998;7.794;2023-06-26T05:00:34;98942.06;;;20.39;100.00
53908;BME280;40469;47.998;7.794;2023-06-26T05:03:03;98938.31;;;20.43;100.00
53908;BME280;40469;47.998;7.794;2023-06-26T05:05:29;98941.47;;;20.51;100.00
53908;BME280;40469;47.998;7.794;2023-06-26T05:07:55;98946.44;;;20.57;100.00
53908;BME280;40469;47.998;7.794;2023-06-26T05:10:20;98948.75;;;20.65;100.00
53908;BME280;40469;47.998;7.794;2023-06-26T05:12:45;98943.50;;;20.81;100.00
53908;BME280;40469;47.998;7.794;2023-06-26T05:15:11;98943.78;;;20.92;100.00
53908;BME280;40469;47.998;7.794;2023-06-26T05:17:36;98956.06;;;20.95;100.00
53908;BME280;40469;47.998;7.794;2023-06-26T05:20:01;98949.88;;;20.94;100.00
53908;BME280;40469;47.998;7.794;2023-06-26T05:22:29;98950.44;;;20.83;100.00
53908;BME280;40469;47.998;7.794;2023-06-26T05:24:55;98948.41;;;20.71;100.00
53908;BME280;40469;47.998;7.794;2023-06-26T05:27:24;98951.41;;;20.65;100.00
53908;BME280;40469;47.998;7.794;2023-06-26T05:29:50;98954.41;;;20.75;100.00
53908;BME280;40469;47.998;7.794;2023-06-26T05:32:16;98955.66;;;20.85;100.00
53908;BME280;40469;47.998;7.794;2023-06-26T05:34:48;98950.50;;;20.82;100.00
53908;BME280;40469;47.998;7.794;2023-06-26T05:39:43;98959.59;;;21.11;100.00
53908;BME280;40469;47.998;7.794;2023-06-26T05:42:09;98951.94;;;21.38;100.00
53908;BME280;40469;47.998;7.794;2023-06-26T05:44:34;98957.31;;;21.86;100.00
53908;BME280;40469;47.998;7.794;2023-06-26T05:47:00;98956.38;;;22.03;100.00
53908;BME280;40469;47.998;7.794;2023-06-26T05:49:25;98960.72;;;22.20;100.00
53908;BME280;40469;47.998;7.794;2023-06-26T05:51:51;98954.28;;;22.40;100.00
53908;BME280;40469;47.998;7.794;2023-06-26T05:54:16;98953.47;;;22.54;100.00
53908;BME280;40469;47.998;7.794;2023-06-26T05:56:42;98951.09;;;22.64;100.00
53908;BME280;40469;47.998;7.794;2023-06-26T05:59:08;98950.81;;;22.68;100.00
53908;BME280;40469;47.998;7.794;2023-06-26T06:01:33;98952.59;;;22.98;100.00
53908;BME280;40469;47.998;7.794;2023-06-26T06:04:00;98945.59;;;23.26;100.00
53908;BME280;40469;47.998;7.794;2023-06-26T06:06:25;98942.72;;;23.29;100.00
53908;BME280;40469;47.998;7.794;2023-06-26T06:08:50;98944.59;;;23.56;100.00
53908;BME280;40469;47.998;7.794;2023-06-26T06:11:16;98937.53;;;23.83;100.00
53908;BME280;40469;47.998;7.794;2023-06-26T06:13:41;98936.81;;;23.94;100.00
53908;BME280;40469;47.998;7.794;2023-06-26T06:16:06;98945.28;;;24.01;100.00
53908;BME280;40469;47.998;7.794;2023-06-26T06:18:32;98945.59;;;24.23;100.00
53908;BME280;40469;47.998;7.794;2023-06-26T06:20:57;98942.81;;;24.25;100.00
53908;BME280;40469;47.998;7.794;2023-06-26T06:23:22;98934.84;;;24.38;100.00
53908;BME280;40469;47.998;7.794;2023-06-26T06:25:48;98933.03;;;24.38;100.00
53908;BME280;40469;47.998;7.794;2023-06-26T06:28:13;98940.03;;;24.54;100.00
53908;BME280;40469;47.998;7.794;2023-06-26T06:30:41;98934.75;;;24.52;100.00
53908;BME280;40469;47.998;7.794;2023-06-26T06:33:08;98939.59;;;24.60;100.00
53908;BME280;40469;47.998;7.794;2023-06-26T06:35:33;98940.69;;;24.57;100.00
53908;BME280;40469;47.998;7.794;2023-06-26T06:37:59;98933.75;;;24.81;100.00
53908;BME280;40469;47.998;7.794;2023-06-26T06:40:24;98929.19;;;24.95;100.00
53908;BME280;40469;47.998;7.794;2023-06-26T06:42:50;98940.16;;;25.04;100.00
53908;BME280;40469;47.998;7.794;2023-06-26T06:45:16;98940.81;;;25.07;100.00
53908;BME280;40469;47.998;7.794;2023-06-26T06:47:41;98935.47;;;25.07;100.00
53908;BME280;40469;47.998;7.794;2023-06-26T06:50:07;98933.78;;;25.06;100.00
53908;BME280;40469;47.998;7.794;2023-06-26T06:52:39;98942.22;;;25.26;100.00
53908;BME280;40469;47.998;7.794;2023-06-26T06:55:06;98945.44;;;25.31;100.00
53908;BME280;40469;47.998;7.794;2023-06-26T06:57:33;98941.47;;;25.37;100.00
53908;BME280;40469;47.998;7.794;2023-06-26T07:00:03;98940.47;;;25.38;100.00
53908;BME280;40469;47.998;7.794;2023-06-26T07:02:29;98939.84;;;25.34;100.00
53908;BME280;40469;47.998;7.794;2023-06-26T07:04:55;98952.56;;;25.30;100.00
53908;BME280;40469;47.998;7.794;2023-06-26T07:07:20;98953.00;;;25.37;100.00
53908;BME280;40469;47.998;7.794;2023-06-26T07:09:45;98949.91;;;25.30;100.00
53908;BME280;40469;47.998;7.794;2023-06-26T07:12:11;98952.69;;;25.42;100.00
53908;BME280;40469;47.998;7.794;2023-06-26T07:14:36;98952.34;;;25.46;100.00
53908;BME280;40469;47.998;7.794;2023-06-26T07:17:01;98961.13;;;25.48;100.00
53908;BME280;40469;47.998;7.794;2023-06-26T07:19:27;98950.28;;;25.50;100.00
53908;BME280;40469;47.998;7.794;2023-06-26T07:21:52;98954.16;;;25.46;100.00
53908;BME280;40469;47.998;7.794;2023-06-26T07:24:17;98949.25;;;25.52;100.00
53908;BME280;40469;47.998;7.794;2023-06-26T07:26:43;98947.63;;;25.50;100.00
53908;BME280;40469;47.998;7.794;2023-06-26T07:29:08;98949.13;;;25.54;100.00
53908;BME280;40469;47.998;7.794;2023-06-26T07:31:34;98947.84;;;25.60;100.00
53908;BME280;40469;47.998;7.794;2023-06-26T07:33:59;98936.69;;;25.66;100.00
53908;BME280;40469;47.998;7.794;2023-06-26T07:36:25;98939.50;;;25.64;100.00
53908;BME280;40469;47.998;7.794;2023-06-26T07:38:50;98939.66;;;25.74;100.00
53908;BME280;40469;47.998;7.794;2023-06-26T07:41:15;98945.63;;;25.78;100.00
53908;BME280;40469;47.998;7.794;2023-06-26T07:43:40;98951.50;;;25.83;100.00
53908;BME280;40469;47.998;7.794;2023-06-26T07:46:06;98947.00;;;25.83;100.00
53908;BME280;40469;47.998;7.794;2023-06-26T07:48:31;98945.94;;;25.86;100.00
53908;BME280;40469;47.998;7.794;2023-06-26T07:50:56;98941.69;;;26.07;100.00
53908;BME280;40469;47.998;7.794;2023-06-26T07:53:22;98940.84;;;26.07;100.00
53908;BME280;40469;47.998;7.794;2023-06-26T07:55:47;98952.63;;;26.04;100.00
53908;BME280;40469;47.998;7.794;2023-06-26T07:58:12;98943.16;;;26.11;100.00
53908;BME280;40469;47.998;7.794;2023-06-26T08:00:38;98941.81;;;26.30;100.00
53908;BME280;40469;47.998;7.794;2023-06-26T08:03:03;98951.81;;;26.39;100.00
53908;BME280;40469;47.998;7.794;2023-06-26T08:05:28;98945.88;;;26.47;100.00
53908;BME280;40469;47.998;7.794;2023-06-26T08:07:54;98941.94;;;26.40;100.00
53908;BME280;40469;47.998;7.794;2023-06-26T08:10:20;98952.28;;;26.33;100.00
53908;BME280;40469;47.998;7.794;2023-06-26T08:12:45;98945.38;;;26.42;100.00
53908;BME280;40469;47.998;7.794;2023-06-26T08:15:12;98942.84;;;26.40;100.00
53908;BME280;40469;47.998;7.794;2023-06-26T08:17:38;98946.03;;;26.45;100.00
53908;BME280;40469;47.998;7.794;2023-06-26T08:20:04;98945.25;;;26.43;100.00
53908;BME280;40469;47.998;7.794;2023-06-26T08:22:30;98941.94;;;26.40;100.00
53908;BME280;40469;47.998;7.794;2023-06-26T08:24:55;98954.22;;;26.31;100.00
53908;BME280;40469;47.998;7.794;2023-06-26T08:27:21;98944.75;;;26.38;100.00
53908;BME280;40469;47.998;7.794;2023-06-26T08:29:46;98939.34;;;26.51;100.00
53908;BME280;40469;47.998;7.794;2023-06-26T08:32:12;98949.06;;;26.52;100.00
53908;BME280;40469;47.998;7.794;2023-06-26T08:34:37;98952.47;;;26.54;100.00
53908;BME280;40469;47.998;7.794;2023-06-26T08:37:02;98957.06;;;26.65;100.00
53908;BME280;40469;47.998;7.794;2023-06-26T08:39:28;98947.22;;;26.77;100.00
53908;BME280;40469;47.998;7.794;2023-06-26T08:41:53;98962.94;;;26.81;100.00
53908;BME280;40469;47.998;7.794;2023-06-26T08:44:19;98962.88;;;26.70;100.00
53908;BME280;40469;47.998;7.794;2023-06-26T08:46:49;98957.81;;;26.78;100.00
53908;BME280;40469;47.998;7.794;2023-06-26T08:49:18;98959.28;;;26.82;100.00
53908;BME280;40469;47.998;7.794;2023-06-26T08:51:51;98968.41;;;26.91;100.00
53908;BME280;40469;47.998;7.794;2023-06-26T08:54:21;98954.56;;;26.86;100.00
53908;BME280;40469;47.998;7.794;2023-06-26T08:56:49;98966.75;;;26.90;100.00
53908;BME280;40469;47.998;7.794;2023-06-26T08:59:15;98965.28;;;26.86;100.00
53908;BME280;40469;47.998;7.794;2023-06-26T09:01:41;98965.88;;;26.90;100.00
53908;BME280;40469;47.998;7.794;2023-06-26T09:04:07;98966.63;;;27.03;100.00
53908;BME280;40469;47.998;7.794;2023-06-26T09:06:33;98974.06;;;27.11;100.00
53908;BME280;40469;47.998;7.794;2023-06-26T09:08:58;98977.22;;;27.16;100.00
53908;BME280;40469;47.998;7.794;2023-06-26T09:11:23;98971.94;;;27.27;100.00
53908;BME280;40469;47.998;7.794;2023-06-26T09:13:49;98977.66;;;27.45;100.00
53908;BME280;40469;47.998;7.794;2023-06-26T09:16:15;98991.94;;;27.57;100.00
53908;BME280;40469;47.998;7.794;2023-06-26T09:18:41;98992.16;;;27.54;100.00
53908;BME280;40469;47.998;7.794;2023-06-26T09:21:09;98993.97;;;27.42;100.00
53908;BME280;40469;47.998;7.794;2023-06-26T09:23:35;99001.91;;;27.43;100.00
53908;BME280;40469;47.998;7.794;2023-06-26T09:26:04;99007.88;;;27.47;100.00
53908;BME280;40469;47.998;7.794;2023-06-26T09:28:31;99001.69;;;27.47;100.00
53908;BME280;40469;47.998;7.794;2023-06-26T09:31:06;99019.97;;;27.30;100.00
53908;BME280;40469;47.998;7.794;2023-06-26T09:33:35;99012.84;;;27.18;100.00
53908;BME280;40469;47.998;7.794;2023-06-26T09:36:05;99016.75;;;27.25;100.00
53908;BME280;40469;47.998;7.794;2023-06-26T09:38:31;99018.50;;;27.37;100.00
53908;BME280;40469;47.998;7.794;2023-06-26T09:40:57;99018.63;;;27.70;100.00
53908;BME280;40469;47.998;7.794;2023-06-26T09:43:22;99021.53;;;28.01;100.00
53908;BME280;40469;47.998;7.794;2023-06-26T09:45:48;99019.72;;;28.01;100.00
53908;BME280;40469;47.998;7.794;2023-06-26T09:48:13;99017.41;;;27.85;100.00
53908;BME280;40469;47.998;7.794;2023-06-26T09:50:41;99026.69;;;27.92;100.00
53908;BME280;40469;47.998;7.794;2023-06-26T09:53:08;99019.38;;;28.38;100.00
53908;BME280;40469;47.998;7.794;2023-06-26T09:55:39;99028.41;;;28.37;100.00
53908;BME280;40469;47.998;7.794;2023-06-26T09:58:06;99018.91;;;28.33;100.00
53908;BME280;40469;47.998;7.794;2023-06-26T10:00:32;99026.41;;;28.50;100.00
53908;BME280;40469;47.998;7.794;2023-06-26T10:02:59;99040.53;;;28.96;100.00
53908;BME280;40469;47.998;7.794;2023-06-26T10:05:24;99033.44;;;28.95;100.00
53908;BME280;40469;47.998;7.794;2023-06-26T10:07:50;99031.22;;;29.00;100.00
53908;BME280;40469;47.998;7.794;2023-06-26T10:10:16;99033.34;;;29.18;100.00
53908;BME280;40469;47.998;7.794;2023-06-26T10:12:43;99036.75;;;29.20;100.00
53908;BME280;40469;47.998;7.794;2023-06-26T10:15:10;99025.16;;;29.19;100.00
53908;BME280;40469;47.998;7.794;2023-06-26T10:17:38;99023.19;;;29.21;100.00
53908;BME280;40469;47.998;7.794;2023-06-26T10:20:08;99030.25;;;29.22;100.00
53908;BME280;40469;47.998;7.794;2023-06-26T10:22:41;99036.00;;;28.97;100.00
53908;BME280;40469;47.998;7.794;2023-06-26T10:25:09;99035.00;;;28.77;100.00
53908;BME280;40469;47.998;7.794;2023-06-26T10:27:39;99036.00;;;28.76;100.00
53908;BME280;40469;47.998;7.794;2023-06-26T10:30:09;99045.31;;;28.60;100.00
53908;BME280;40469;47.998;7.794;2023-06-26T10:32:36;99051.56;;;28.49;100.00
53908;BME280;40469;47.998;7.794;2023-06-26T10:35:02;99045.63;;;28.34;100.00
53908;BME280;40469;47.998;7.794;2023-06-26T10:37:45;99050.00;;;28.35;100.00
53908;BME280;40469;47.998;7.794;2023-06-26T10:40:12;99059.88;;;28.46;100.00
53908;BME280;40469;47.998;7.794;2023-06-26T10:42:39;99061.88;;;28.33;100.00
53908;BME280;40469;47.998;7.794;2023-06-26T10:45:13;99065.56;;;28.21;100.00
53908;BME280;40469;47.998;7.794;2023-06-26T10:47:40;99060.66;;;28.26;100.00
53908;BME280;40469;47.998;7.794;2023-06-26T10:53:14;99054.59;;;28.24;100.00
53908;BME280;40469;47.998;7.794;2023-06-26T10:56:17;99049.38;;;27.99;100.00
53908;BME280;40469;47.998;7.794;2023-06-26T11:01:20;99039.50;;;28.87;100.00
53908;BME280;40469;47.998;7.794;2023-06-26T11:04:06;99037.53;;;29.32;100.00
53908;BME280;40469;47.998;7.794;2023-06-26T11:06:33;99028.47;;;29.84;100.00
53908;BME280;40469;47.998;7.794;2023-06-26T11:11:58;99039.03;;;30.17;100.00
53908;BME280;40469;47.998;7.794;2023-06-26T11:14:25;99030.19;;;29.64;100.00
53908;BME280;40469;47.998;7.794;2023-06-26T11:16:52;99025.88;;;29.10;100.00
53908;BME280;40469;47.998;7.794;2023-06-26T11:19:18;99038.69;;;28.76;100.00
53908;BME280;40469;47.998;7.794;2023-06-26T11:21:44;99031.53;;;28.65;100.00
53908;BME280;40469;47.998;7.794;2023-06-26T11:24:12;99030.75;;;28.74;100.00
53908;BME280;40469;47.998;7.794;2023-06-26T11:26:42;99025.97;;;28.78;100.00
53908;BME280;40469;47.998;7.794;2023-06-26T11:29:08;99032.84;;;29.12;100.00
53908;BME280;40469;47.998;7.794;2023-06-26T11:31:35;99033.25;;;29.50;100.00
53908;BME280;40469;47.998;7.794;2023-06-26T11:34:05;99031.16;;;29.84;100.00
53908;BME280;40469;47.998;7.794;2023-06-26T11:36:32;99029.84;;;29.79;100.00
53908;BME280;40469;47.998;7.794;2023-06-26T11:39:03;99033.44;;;29.58;100.00
53908;BME280;40469;47.998;7.794;2023-06-26T11:41:32;99042.75;;;29.33;100.00
53908;BME280;40469;47.998;7.794;2023-06-26T11:44:01;99033.38;;;29.06;100.00
53908;BME280;40469;47.998;7.794;2023-06-26T11:46:27;99043.59;;;28.91;100.00
53908;BME280;40469;47.998;7.794;2023-06-26T11:48:53;99046.16;;;28.93;100.00
53908;BME280;40469;47.998;7.794;2023-06-26T11:51:19;99054.25;;;28.82;100.00
53908;BME280;40469;47.998;7.794;2023-06-26T11:53:46;99045.84;;;28.54;100.00
53908;BME280;40469;47.998;7.794;2023-06-26T11:56:13;99049.41;;;28.32;100.00
53908;BME280;40469;47.998;7.794;2023-06-26T11:59:04;99050.41;;;28.20;100.00
53908;BME280;40469;47.998;7.794;2023-06-26T12:01:37;99045.41;;;28.26;100.00
53908;BME280;40469;47.998;7.794;2023-06-26T12:04:05;99050.28;;;28.21;100.00
53908;BME280;40469;47.998;7.794;2023-06-26T12:06:32;99041.91;;;28.03;100.00
53908;BME280;40469;47.998;7.794;2023-06-26T12:09:00;99036.91;;;27.87;100.00
53908;BME280;40469;47.998;7.794;2023-06-26T12:11:27;99037.16;;;27.73;100.00
53908;BME280;40469;47.998;7.794;2023-06-26T12:13:54;99031.91;;;27.71;100.00
53908;BME280;40469;47.998;7.794;2023-06-26T12:16:19;99032.63;;;27.73;100.00
53908;BME280;40469;47.998;7.794;2023-06-26T12:18:46;99033.72;;;27.59;100.00
53908;BME280;40469;47.998;7.794;2023-06-26T12:24:13;99043.84;;;27.56;100.00
53908;BME280;40469;47.998;7.794;2023-06-26T12:26:42;99042.88;;;27.57;100.00
53908;BME280;40469;47.998;7.794;2023-06-26T12:29:12;99033.94;;;28.13;100.00
53908;BME280;40469;47.998;7.794;2023-06-26T12:31:43;99029.84;;;29.06;100.00
53908;BME280;40469;47.998;7.794;2023-06-26T12:34:14;99035.47;;;29.03;100.00
53908;BME280;40469;47.998;7.794;2023-06-26T12:36:50;99035.53;;;28.91;100.00
53908;BME280;40469;47.998;7.794;2023-06-26T12:39:18;99032.97;;;28.69;100.00
53908;BME280;40469;47.998;7.794;2023-06-26T12:41:54;99029.84;;;28.41;100.00
53908;BME280;40469;47.998;7.794;2023-06-26T12:44:20;99038.94;;;28.17;100.00
53908;BME280;40469;47.998;7.794;2023-06-26T12:46:48;99038.84;;;28.08;100.00
53908;BME280;40469;47.998;7.794;2023-06-26T12:49:14;99035.78;;;28.12;100.00
53908;BME280;40469;47.998;7.794;2023-06-26T12:51:39;99036.91;;;28.10;100.00
53908;BME280;40469;47.998;7.794;2023-06-26T12:54:05;99042.41;;;27.97;100.00
53908;BME280;40469;47.998;7.794;2023-06-26T12:56:33;99041.91;;;27.92;100.00
53908;BME280;40469;47.998;7.794;2023-06-26T12:58:59;99035.56;;;27.82;100.00
53908;BME280;40469;47.998;7.794;2023-06-26T13:01:24;99038.47;;;27.90;100.00
53908;BME280;40469;47.998;7.794;2023-06-26T13:03:50;99039.00;;;27.95;100.00